sensor_id;sensor_type;location;lat;lon;timestamp;P1;durP1;ratioP1;P2;durP2;ratioP2
75932;SDS011;64803;52.356;5.310;2022-11-20T00:01:19;16.02;;;6.32;;
75932;SDS011;64803;52.356;5.310;2022-11-20T00:03:46;15.73;;;5.68;;
75932;SDS011;64803;52.356;5.310;2022-11-20T00:06:14;11.73;;;5.85;;
75932;SDS011;64803;52.356;5.310;2022-11-20T00:08:41;14.77;;;5.43;;
75932;SDS011;64803;52.356;5.310;2022-11-20T00:11:10;17.00;;;5.43;;
75932;SDS011;64803;52.356;5.310;2022-11-20T00:13:37;17.20;;;6.35;;
75932;SDS011;64803;52.356;5.310;2022-11-20T00:16:04;14.70;;;6.13;;
75932;SDS011;64803;52.356;5.310;2022-11-20T00:18:32;15.85;;;7.03;;
75932;SDS011;64803;52.356;5.310;2022-11-20T00:21:06;15.23;;;6.63;;
75932;SDS011;64803;52.356;5.310;2022-11-20T00:26:03;10.77;;;4.47;;
75932;SDS011;64803;52.356;5.310;2022-11-20T00:28:31;17.80;;;6.38;;
75932;SDS011;64803;52.356;5.310;2022-11-20T00:31:05;15.80;;;6.30;;
75932;SDS011;64803;52.356;5.310;2022-11-20T00:33:33;15.65;;;6.15;;
75932;SDS011;64803;52.356;5.310;2022-11-20T00:36:22;16.27;;;5.63;;
75932;SDS011;64803;52.356;5.310;2022-11-20T00:38:50;19.67;;;5.90;;
75932;SDS011;64803;52.356;5.310;2022-11-20T00:41:17;13.13;;;5.03;;
75932;SDS011;64803;52.356;5.310;2022-11-20T00:43:43;12.63;;;5.35;;
75932;SDS011;64803;52.356;5.310;2022-11-20T00:46:17;32.58;;;9.55;;
75932;SDS011;64803;52.356;5.310;2022-11-20T00:48:45;16.65;;;5.68;;
75932;SDS011;64803;52.356;5.310;2022-11-20T00:51:16;21.10;;;7.13;;
75932;SDS011;64803;52.356;5.310;2022-11-20T00:53:45;20.27;;;6.13;;
75932;SDS011;64803;52.356;5.310;2022-11-20T00:56:15;19.63;;;6.28;;
75932;SDS011;64803;52.356;5.310;2022-11-20T00:58:43;17.67;;;6.65;;
75932;SDS011;64803;52.356;5.310;2022-11-20T01:01:24;19.83;;;6.28;;
75932;SDS011;64803;52.356;5.310;2022-11-20T01:03:52;18.85;;;6.85;;
75932;SDS011;64803;52.356;5.310;2022-11-20T01:06:31;18.38;;;8.00;;
75932;SDS011;64803;52.356;5.310;2022-11-20T01:09:00;20.98;;;7.40;;
75932;SDS011;64803;52.356;5.310;2022-11-20T01:11:30;19.38;;;7.03;;
75932;SDS011;64803;52.356;5.310;2022-11-20T01:13:57;18.05;;;7.15;;
75932;SDS011;64803;52.356;5.310;2022-11-20T01:16:26;12.40;;;6.20;;
75932;SDS011;64803;52.356;5.310;2022-11-20T01:18:55;19.63;;;6.30;;
75932;SDS011;64803;52.356;5.310;2022-11-20T01:21:42;24.30;;;8.23;;
75932;SDS011;64803;52.356;5.310;2022-11-20T01:24:11;18.85;;;6.90;;
75932;SDS011;64803;52.356;5.310;2022-11-20T01:26:39;17.95;;;6.72;;
75932;SDS011;64803;52.356;5.310;2022-11-20T01:29:06;18.38;;;6.80;;
75932;SDS011;64803;52.356;5.310;2022-11-20T01:31:50;15.35;;;7.10;;
75932;SDS011;64803;52.356;5.310;2022-11-20T01:34:20;15.85;;;6.18;;
75932;SDS011;64803;52.356;5.310;2022-11-20T01:36:48;12.80;;;4.95;;
75932;SDS011;64803;52.356;5.310;2022-11-20T01:39:21;20.45;;;7.03;;
75932;SDS011;64803;52.356;5.310;2022-11-20T01:41:51;24.80;;;8.25;;
75932;SDS011;64803;52.356;5.310;2022-11-20T01:47:14;17.30;;;6.20;;
75932;SDS011;64803;52.356;5.310;2022-11-20T01:52:46;13.13;;;3.97;;
75932;SDS011;64803;52.356;5.310;2022-11-20T01:55:20;15.73;;;4.78;;
75932;SDS011;64803;52.356;5.310;2022-11-20T01:57:54;13.35;;;5.50;;
75932;SDS011;64803;52.356;5.310;2022-11-20T02:00:23;13.85;;;5.60;;
75932;SDS011;64803;52.356;5.310;2022-11-20T02:03:00;13.70;;;5.72;;
75932;SDS011;64803;52.356;5.310;2022-11-20T02:05:41;15.38;;;4.70;;
75932;SDS011;64803;52.356;5.310;2022-11-20T02:08:17;18.23;;;6.43;;
75932;SDS011;64803;52.356;5.310;2022-11-20T02:10:45;16.30;;;6.15;;
75932;SDS011;64803;52.356;5.310;2022-11-20T02:13:11;16.15;;;6.40;;
75932;SDS011;64803;52.356;5.310;2022-11-20T02:15:56;22.83;;;7.55;;
75932;SDS011;64803;52.356;5.310;2022-11-20T02:18:23;17.65;;;6.05;;
75932;SDS011;64803;52.356;5.310;2022-11-20T02:20:50;16.45;;;6.35;;
75932;SDS011;64803;52.356;5.310;2022-11-20T02:23:31;19.80;;;6.95;;
75932;SDS011;64803;52.356;5.310;2022-11-20T02:26:02;19.13;;;7.20;;
75932;SDS011;64803;52.356;5.310;2022-11-20T02:28:31;17.13;;;6.25;;
75932;SDS011;64803;52.356;5.310;2022-11-20T02:30:57;20.38;;;7.10;;
75932;SDS011;64803;52.356;5.310;2022-11-20T02:33:23;19.27;;;6.68;;
75932;SDS011;64803;52.356;5.310;2022-11-20T02:35:49;18.00;;;6.63;;
75932;SDS011;64803;52.356;5.310;2022-11-20T02:38:15;15.63;;;5.85;;
75932;SDS011;64803;52.356;5.310;2022-11-20T02:40:41;14.70;;;5.40;;
75932;SDS011;64803;52.356;5.310;2022-11-20T02:43:09;13.63;;;5.15;;
75932;SDS011;64803;52.356;5.310;2022-11-20T02:45:35;17.60;;;6.82;;
75932;SDS011;64803;52.356;5.310;2022-11-20T02:48:02;15.95;;;6.05;;
75932;SDS011;64803;52.356;5.310;2022-11-20T02:50:28;16.35;;;6.07;;
75932;SDS011;64803;52.356;5.310;2022-11-20T02:52:54;15.82;;;6.18;;
75932;SDS011;64803;52.356;5.310;2022-11-20T02:55:22;14.30;;;5.82;;
75932;SDS011;64803;52.356;5.310;2022-11-20T02:57:48;16.38;;;6.50;;
75932;SDS011;64803;52.356;5.310;2022-11-20T03:00:14;18.42;;;7.22;;
75932;SDS011;64803;52.356;5.310;2022-11-20T03:02:42;13.43;;;5.50;;
75932;SDS011;64803;52.356;5.310;2022-11-20T03:05:11;17.58;;;6.10;;
75932;SDS011;64803;52.356;5.310;2022-11-20T03:07:38;14.45;;;5.75;;
75932;SDS011;64803;52.356;5.310;2022-11-20T03:10:04;17.55;;;6.50;;
75932;SDS011;64803;52.356;5.310;2022-11-20T03:12:31;13.85;;;5.60;;
75932;SDS011;64803;52.356;5.310;2022-11-20T03:14:57;15.13;;;5.18;;
75932;SDS011;64803;52.356;5.310;2022-11-20T03:17:23;16.77;;;6.45;;
75932;SDS011;64803;52.356;5.310;2022-11-20T03:19:49;14.90;;;5.65;;
75932;SDS011;64803;52.356;5.310;2022-11-20T03:22:15;14.93;;;5.28;;
75932;SDS011;64803;52.356;5.310;2022-11-20T03:24:41;14.57;;;5.70;;
75932;SDS011;64803;52.356;5.310;2022-11-20T03:27:08;15.77;;;5.95;;
75932;SDS011;64803;52.356;5.310;2022-11-20T03:29:34;15.32;;;5.60;;
75932;SDS011;64803;52.356;5.310;2022-11-20T03:32:01;13.85;;;5.63;;
75932;SDS011;64803;52.356;5.310;2022-11-20T03:34:27;14.10;;;5.80;;
75932;SDS011;64803;52.356;5.310;2022-11-20T03:36:53;17.00;;;5.80;;
75932;SDS011;64803;52.356;5.310;2022-11-20T03:39:19;18.58;;;6.13;;
75932;SDS011;64803;52.356;5.310;2022-11-20T03:41:45;13.23;;;4.88;;
75932;SDS011;64803;52.356;5.310;2022-11-20T03:44:11;11.25;;;5.10;;
75932;SDS011;64803;52.356;5.310;2022-11-20T03:46:37;12.60;;;5.28;;
75932;SDS011;64803;52.356;5.310;2022-11-20T03:49:04;12.00;;;5.05;;
75932;SDS011;64803;52.356;5.310;2022-11-20T03:51:31;14.93;;;5.53;;
75932;SDS011;64803;52.356;5.310;2022-11-20T03:53:59;15.93;;;5.15;;
75932;SDS011;64803;52.356;5.310;2022-11-20T03:56:29;14.77;;;5.78;;
75932;SDS011;64803;52.356;5.310;2022-11-20T03:58:57;13.30;;;5.78;;
75932;SDS011;64803;52.356;5.310;2022-11-20T04:01:26;14.18;;;5.03;;
75932;SDS011;64803;52.356;5.310;2022-11-20T04:03:56;17.10;;;5.85;;
75932;SDS011;64803;52.356;5.310;2022-11-20T04:06:24;14.40;;;5.10;;
75932;SDS011;64803;52.356;5.310;2022-11-20T04:08:57;12.00;;;4.82;;
75932;SDS011;64803;52.356;5.310;2022-11-20T04:11:24;16.65;;;5.25;;
75932;SDS011;64803;52.356;5.310;2022-11-20T04:13:56;13.13;;;4.72;;
75932;SDS011;64803;52.356;5.310;2022-11-20T04:16:25;16.40;;;5.68;;
75932;SDS011;64803;52.356;5.310;2022-11-20T04:18:54;15.18;;;6.53;;
75932;SDS011;64803;52.356;5.310;2022-11-20T04:21:22;12.90;;;5.05;;
75932;SDS011;64803;52.356;5.310;2022-11-20T04:23:50;13.10;;;5.40;;
75932;SDS011;64803;52.356;5.310;2022-11-20T04:26:18;12.48;;;5.32;;
75932;SDS011;64803;52.356;5.310;2022-11-20T04:28:45;16.85;;;5.93;;
75932;SDS011;64803;52.356;5.310;2022-11-20T04:31:15;14.77;;;4.97;;
75932;SDS011;64803;52.356;5.310;2022-11-20T04:33:43;13.25;;;5.43;;
75932;SDS011;64803;52.356;5.310;2022-11-20T04:36:11;12.88;;;4.95;;
75932;SDS011;64803;52.356;5.310;2022-11-20T04:38:45;15.18;;;5.70;;
75932;SDS011;64803;52.356;5.310;2022-11-20T04:41:15;15.38;;;5.50;;
75932;SDS011;64803;52.356;5.310;2022-11-20T04:43:46;15.07;;;5.90;;
75932;SDS011;64803;52.356;5.310;2022-11-20T04:46:19;14.52;;;5.25;;
75932;SDS011;64803;52.356;5.310;2022-11-20T04:48:47;14.98;;;6.10;;
75932;SDS011;64803;52.356;5.310;2022-11-20T04:51:13;16.02;;;5.82;;
75932;SDS011;64803;52.356;5.310;2022-11-20T04:53:39;14.32;;;5.10;;
75932;SDS011;64803;52.356;5.310;2022-11-20T04:56:06;18.48;;;6.55;;
75932;SDS011;64803;52.356;5.310;2022-11-20T05:03:30;12.77;;;4.90;;
75932;SDS011;64803;52.356;5.310;2022-11-20T05:05:57;12.80;;;5.18;;
75932;SDS011;64803;52.356;5.310;2022-11-20T05:08:25;15.75;;;5.45;;
75932;SDS011;64803;52.356;5.310;2022-11-20T05:10:51;12.48;;;5.68;;
75932;SDS011;64803;52.356;5.310;2022-11-20T05:13:19;15.90;;;5.57;;
75932;SDS011;64803;52.356;5.310;2022-11-20T05:15:45;16.45;;;6.75;;
75932;SDS011;64803;52.356;5.310;2022-11-20T05:18:11;16.02;;;6.10;;
75932;SDS011;64803;52.356;5.310;2022-11-20T05:20:37;16.60;;;6.15;;
75932;SDS011;64803;52.356;5.310;2022-11-20T05:23:03;15.88;;;5.20;;
75932;SDS011;64803;52.356;5.310;2022-11-20T05:25:29;13.95;;;5.07;;
75932;SDS011;64803;52.356;5.310;2022-11-20T05:27:55;13.57;;;6.07;;
75932;SDS011;64803;52.356;5.310;2022-11-20T05:30:22;15.55;;;6.57;;
75932;SDS011;64803;52.356;5.310;2022-11-20T05:32:48;10.88;;;4.35;;
75932;SDS011;64803;52.356;5.310;2022-11-20T05:35:14;13.40;;;5.63;;
75932;SDS011;64803;52.356;5.310;2022-11-20T05:37:40;17.95;;;5.88;;
75932;SDS011;64803;52.356;5.310;2022-11-20T05:40:06;18.15;;;5.75;;
75932;SDS011;64803;52.356;5.310;2022-11-20T05:42:33;13.65;;;5.90;;
75932;SDS011;64803;52.356;5.310;2022-11-20T05:44:59;17.50;;;7.50;;
75932;SDS011;64803;52.356;5.310;2022-11-20T05:47:27;17.80;;;7.00;;
75932;SDS011;64803;52.356;5.310;2022-11-20T05:49:56;17.75;;;7.32;;
75932;SDS011;64803;52.356;5.310;2022-11-20T05:52:22;16.40;;;6.22;;
75932;SDS011;64803;52.356;5.310;2022-11-20T05:54:48;19.00;;;6.15;;
75932;SDS011;64803;52.356;5.310;2022-11-20T05:57:14;16.38;;;7.40;;
75932;SDS011;64803;52.356;5.310;2022-11-20T05:59:40;14.52;;;4.57;;
75932;SDS011;64803;52.356;5.310;2022-11-20T06:02:06;11.43;;;5.15;;
75932;SDS011;64803;52.356;5.310;2022-11-20T06:04:35;16.27;;;5.50;;
75932;SDS011;64803;52.356;5.310;2022-11-20T06:07:01;17.40;;;6.05;;
75932;SDS011;64803;52.356;5.310;2022-11-20T06:09:27;18.17;;;6.78;;
75932;SDS011;64803;52.356;5.310;2022-11-20T06:11:53;17.13;;;5.97;;
75932;SDS011;64803;52.356;5.310;2022-11-20T06:14:20;15.82;;;6.72;;
75932;SDS011;64803;52.356;5.310;2022-11-20T06:16:46;19.52;;;7.03;;
75932;SDS011;64803;52.356;5.310;2022-11-20T06:19:12;21.70;;;6.82;;
75932;SDS011;64803;52.356;5.310;2022-11-20T06:21:40;20.65;;;7.18;;
75932;SDS011;64803;52.356;5.310;2022-11-20T06:24:06;13.75;;;6.50;;
75932;SDS011;64803;52.356;5.310;2022-11-20T06:29:00;20.38;;;6.32;;
75932;SDS011;64803;52.356;5.310;2022-11-20T06:31:26;16.95;;;6.60;;
75932;SDS011;64803;52.356;5.310;2022-11-20T06:34:03;14.38;;;5.60;;
75932;SDS011;64803;52.356;5.310;2022-11-20T06:36:32;16.52;;;6.43;;
75932;SDS011;64803;52.356;5.310;2022-11-20T06:38:59;19.02;;;7.75;;
75932;SDS011;64803;52.356;5.310;2022-11-20T06:41:26;16.80;;;6.32;;
75932;SDS011;64803;52.356;5.310;2022-11-20T06:43:53;15.77;;;5.78;;
75932;SDS011;64803;52.356;5.310;2022-11-20T06:46:19;19.05;;;7.47;;
75932;SDS011;64803;52.356;5.310;2022-11-20T06:48:46;19.60;;;7.28;;
75932;SDS011;64803;52.356;5.310;2022-11-20T06:51:13;18.05;;;6.80;;
75932;SDS011;64803;52.356;5.310;2022-11-20T06:53:39;16.95;;;6.55;;
75932;SDS011;64803;52.356;5.310;2022-11-20T06:56:06;17.83;;;6.88;;
75932;SDS011;64803;52.356;5.310;2022-11-20T06:58:33;18.85;;;6.10;;
75932;SDS011;64803;52.356;5.310;2022-11-20T07:01:01;20.27;;;6.75;;
75932;SDS011;64803;52.356;5.310;2022-11-20T07:03:31;17.75;;;6.75;;
75932;SDS011;64803;52.356;5.310;2022-11-20T07:05:58;16.90;;;6.93;;
75932;SDS011;64803;52.356;5.310;2022-11-20T07:08:25;21.42;;;7.47;;
75932;SDS011;64803;52.356;5.310;2022-11-20T07:10:51;20.15;;;7.45;;
75932;SDS011;64803;52.356;5.310;2022-11-20T07:13:25;18.45;;;7.78;;
75932;SDS011;64803;52.356;5.310;2022-11-20T07:15:51;20.90;;;7.97;;
75932;SDS011;64803;52.356;5.310;2022-11-20T07:18:23;19.23;;;6.72;;
75932;SDS011;64803;52.356;5.310;2022-11-20T07:20:49;19.52;;;7.57;;
75932;SDS011;64803;52.356;5.310;2022-11-20T07:23:15;18.35;;;6.63;;
75932;SDS011;64803;52.356;5.310;2022-11-20T07:25:41;17.40;;;6.63;;
75932;SDS011;64803;52.356;5.310;2022-11-20T07:28:07;16.95;;;7.32;;
75932;SDS011;64803;52.356;5.310;2022-11-20T07:30:33;15.82;;;6.85;;
75932;SDS011;64803;52.356;5.310;2022-11-20T07:32:59;17.77;;;7.07;;
75932;SDS011;64803;52.356;5.310;2022-11-20T07:35:25;18.35;;;7.25;;
75932;SDS011;64803;52.356;5.310;2022-11-20T09:13:55;31.70;;;15.02;;
75932;SDS011;64803;52.356;5.310;2022-11-20T09:16:21;28.10;;;13.43;;
75932;SDS011;64803;52.356;5.310;2022-11-20T09:18:49;27.05;;;10.88;;
75932;SDS011;64803;52.356;5.310;2022-11-20T09:21:15;28.63;;;11.95;;
75932;SDS011;64803;52.356;5.310;2022-11-20T09:23:41;24.67;;;11.70;;
75932;SDS011;64803;52.356;5.310;2022-11-20T09:26:11;25.80;;;10.65;;
75932;SDS011;64803;52.356;5.310;2022-11-20T09:28:39;25.33;;;12.52;;
75932;SDS011;64803;52.356;5.310;2022-11-20T09:31:08;25.60;;;12.05;;
75932;SDS011;64803;52.356;5.310;2022-11-20T09:33:43;30.73;;;12.82;;
75932;SDS011;64803;52.356;5.310;2022-11-20T09:36:09;15.57;;;6.28;;
75932;SDS011;64803;52.356;5.310;2022-11-20T09:38:35;28.83;;;11.77;;
75932;SDS011;64803;52.356;5.310;2022-11-20T09:41:04;22.38;;;11.05;;
75932;SDS011;64803;52.356;5.310;2022-11-20T09:46:26;27.63;;;12.43;;
75932;SDS011;64803;52.356;5.310;2022-11-20T09:49:17;24.73;;;11.98;;
75932;SDS011;64803;52.356;5.310;2022-11-20T09:51:59;23.77;;;11.45;;
75932;SDS011;64803;52.356;5.310;2022-11-20T09:54:30;27.77;;;12.30;;
75932;SDS011;64803;52.356;5.310;2022-11-20T09:57:02;25.45;;;12.07;;
75932;SDS011;64803;52.356;5.310;2022-11-20T09:59:44;26.88;;;11.68;;
75932;SDS011;64803;52.356;5.310;2022-11-20T10:02:28;25.67;;;12.02;;
75932;SDS011;64803;52.356;5.310;2022-11-20T10:07:47;24.85;;;11.68;;
75932;SDS011;64803;52.356;5.310;2022-11-20T10:10:44;23.40;;;10.82;;
75932;SDS011;64803;52.356;5.310;2022-11-20T10:19:01;33.63;;;12.57;;
75932;SDS011;64803;52.356;5.310;2022-11-20T10:22:49;24.23;;;12.18;;
75932;SDS011;64803;52.356;5.310;2022-11-20T10:25:05;26.27;;;12.23;;
75932;SDS011;64803;52.356;5.310;2022-11-20T10:30:40;23.20;;;11.55;;
75932;SDS011;64803;52.356;5.310;2022-11-20T10:33:16;27.48;;;12.52;;
75932;SDS011;64803;52.356;5.310;2022-11-20T10:35:52;27.88;;;12.07;;
75932;SDS011;64803;52.356;5.310;2022-11-20T10:38:33;27.95;;;12.35;;
75932;SDS011;64803;52.356;5.310;2022-11-20T10:41:03;26.10;;;12.85;;
75932;SDS011;64803;52.356;5.310;2022-11-20T10:43:52;25.33;;;12.05;;
75932;SDS011;64803;52.356;5.310;2022-11-20T10:46:44;27.65;;;12.63;;
75932;SDS011;64803;52.356;5.310;2022-11-20T10:49:18;27.80;;;13.15;;
75932;SDS011;64803;52.356;5.310;2022-11-20T10:52:04;31.20;;;14.02;;
75932;SDS011;64803;52.356;5.310;2022-11-20T11:00:11;26.35;;;12.40;;
75932;SDS011;64803;52.356;5.310;2022-11-20T11:02:40;29.65;;;14.15;;
75932;SDS011;64803;52.356;5.310;2022-11-20T11:05:13;29.20;;;12.23;;
75932;SDS011;64803;52.356;5.310;2022-11-20T11:07:46;25.45;;;12.73;;
75932;SDS011;64803;52.356;5.310;2022-11-20T11:10:17;26.63;;;12.65;;
75932;SDS011;64803;52.356;5.310;2022-11-20T11:12:46;29.27;;;12.98;;
75932;SDS011;64803;52.356;5.310;2022-11-20T11:18:05;31.48;;;12.52;;
75932;SDS011;64803;52.356;5.310;2022-11-20T11:20:35;23.58;;;12.10;;
75932;SDS011;64803;52.356;5.310;2022-11-20T11:23:01;29.52;;;12.63;;
75932;SDS011;64803;52.356;5.310;2022-11-20T11:25:29;31.55;;;14.00;;
75932;SDS011;64803;52.356;5.310;2022-11-20T11:27:59;39.53;;;15.68;;
75932;SDS011;64803;52.356;5.310;2022-11-20T11:30:29;38.22;;;15.73;;
75932;SDS011;64803;52.356;5.310;2022-11-20T11:33:09;34.28;;;16.02;;
75932;SDS011;64803;52.356;5.310;2022-11-20T11:35:59;29.38;;;14.40;;
75932;SDS011;64803;52.356;5.310;2022-11-20T11:38:29;31.25;;;14.48;;
75932;SDS011;64803;52.356;5.310;2022-11-20T11:41:01;35.97;;;15.90;;
75932;SDS011;64803;52.356;5.310;2022-11-20T11:46:24;32.35;;;14.70;;
75932;SDS011;64803;52.356;5.310;2022-11-20T11:49:11;38.20;;;15.80;;
75932;SDS011;64803;52.356;5.310;2022-11-20T11:54:14;36.42;;;16.25;;
75932;SDS011;64803;52.356;5.310;2022-11-20T11:56:44;37.40;;;17.00;;
75932;SDS011;64803;52.356;5.310;2022-11-20T11:59:12;40.92;;;17.98;;
75932;SDS011;64803;52.356;5.310;2022-11-20T12:01:50;37.10;;;14.70;;
75932;SDS011;64803;52.356;5.310;2022-11-20T12:04:33;35.30;;;15.20;;
75932;SDS011;64803;52.356;5.310;2022-11-20T12:09:43;40.63;;;16.10;;
75932;SDS011;64803;52.356;5.310;2022-11-20T12:12:16;39.10;;;17.08;;
75932;SDS011;64803;52.356;5.310;2022-11-20T12:14:50;46.35;;;18.65;;
75932;SDS011;64803;52.356;5.310;2022-11-20T12:17:20;43.30;;;17.55;;
75932;SDS011;64803;52.356;5.310;2022-11-20T12:19:46;44.25;;;18.33;;
75932;SDS011;64803;52.356;5.310;2022-11-20T12:22:25;48.75;;;19.73;;
75932;SDS011;64803;52.356;5.310;2022-11-20T12:25:27;46.22;;;17.80;;
75932;SDS011;64803;52.356;5.310;2022-11-20T12:30:25;43.53;;;19.75;;
75932;SDS011;64803;52.356;5.310;2022-11-20T12:36:14;39.42;;;17.45;;
75932;SDS011;64803;52.356;5.310;2022-11-20T12:45:20;44.63;;;18.60;;
75932;SDS011;64803;52.356;5.310;2022-11-20T12:47:59;47.13;;;19.70;;
75932;SDS011;64803;52.356;5.310;2022-11-20T12:53:46;50.33;;;22.38;;
75932;SDS011;64803;52.356;5.310;2022-11-20T12:56:40;57.40;;;22.17;;
75932;SDS011;64803;52.356;5.310;2022-11-20T12:59:20;47.55;;;19.98;;
75932;SDS011;64803;52.356;5.310;2022-11-20T13:02:13;52.13;;;21.67;;
75932;SDS011;64803;52.356;5.310;2022-11-20T13:05:15;53.33;;;24.77;;
75932;SDS011;64803;52.356;5.310;2022-11-20T13:07:52;51.25;;;20.25;;
75932;SDS011;64803;52.356;5.310;2022-11-20T13:10:33;46.05;;;20.38;;
75932;SDS011;64803;52.356;5.310;2022-11-20T13:13:08;62.20;;;23.02;;
75932;SDS011;64803;52.356;5.310;2022-11-20T13:15:51;45.05;;;18.88;;
75932;SDS011;64803;52.356;5.310;2022-11-20T13:18:24;47.28;;;19.00;;
75932;SDS011;64803;52.356;5.310;2022-11-20T13:20:50;47.08;;;20.75;;
75932;SDS011;64803;52.356;5.310;2022-11-20T13:23:24;50.80;;;21.25;;
75932;SDS011;64803;52.356;5.310;2022-11-20T13:26:02;45.28;;;19.35;;
75932;SDS011;64803;52.356;5.310;2022-11-20T13:28:29;48.72;;;22.38;;
75932;SDS011;64803;52.356;5.310;2022-11-20T13:30:57;40.33;;;17.05;;
75932;SDS011;64803;52.356;5.310;2022-11-20T13:33:29;51.38;;;20.33;;
75932;SDS011;64803;52.356;5.310;2022-11-20T13:36:02;49.70;;;20.35;;
75932;SDS011;64803;52.356;5.310;2022-11-20T13:38:39;47.70;;;20.25;;
75932;SDS011;64803;52.356;5.310;2022-11-20T13:41:08;47.17;;;19.60;;
75932;SDS011;64803;52.356;5.310;2022-11-20T13:43:53;47.45;;;21.00;;
75932;SDS011;64803;52.356;5.310;2022-11-20T13:46:23;42.13;;;19.00;;
75932;SDS011;64803;52.356;5.310;2022-11-20T13:49:32;43.35;;;19.02;;
75932;SDS011;64803;52.356;5.310;2022-11-20T13:57:40;44.92;;;18.20;;
75932;SDS011;64803;52.356;5.310;2022-11-20T14:00:20;48.65;;;19.30;;
75932;SDS011;64803;52.356;5.310;2022-11-20T14:05:39;40.72;;;18.02;;
75932;SDS011;64803;52.356;5.310;2022-11-20T14:08:17;33.60;;;12.75;;
75932;SDS011;64803;52.356;5.310;2022-11-20T14:10:50;49.60;;;20.58;;
75932;SDS011;64803;52.356;5.310;2022-11-20T14:13:20;45.63;;;18.23;;
75932;SDS011;64803;52.356;5.310;2022-11-20T14:15:46;43.45;;;19.00;;
75932;SDS011;64803;52.356;5.310;2022-11-20T14:18:14;49.53;;;22.05;;
75932;SDS011;64803;52.356;5.310;2022-11-20T14:20:45;49.50;;;20.92;;
75932;SDS011;64803;52.356;5.310;2022-11-20T14:23:11;50.13;;;19.65;;
75932;SDS011;64803;52.356;5.310;2022-11-20T14:25:41;48.53;;;21.50;;
75932;SDS011;64803;52.356;5.310;2022-11-20T14:28:17;49.22;;;21.15;;
75932;SDS011;64803;52.356;5.310;2022-11-20T14:30:51;46.80;;;20.25;;
75932;SDS011;64803;52.356;5.310;2022-11-20T14:33:18;48.88;;;21.48;;
75932;SDS011;64803;52.356;5.310;2022-11-20T14:35:46;31.67;;;14.05;;
75932;SDS011;64803;52.356;5.310;2022-11-20T14:38:14;47.15;;;20.08;;
75932;SDS011;64803;52.356;5.310;2022-11-20T14:40:43;49.53;;;20.58;;
75932;SDS011;64803;52.356;5.310;2022-11-20T14:43:18;44.92;;;18.75;;
75932;SDS011;64803;52.356;5.310;2022-11-20T14:45:52;43.80;;;19.00;;
75932;SDS011;64803;52.356;5.310;2022-11-20T14:50:51;47.45;;;20.05;;
75932;SDS011;64803;52.356;5.310;2022-11-20T14:53:21;47.97;;;19.52;;
75932;SDS011;64803;52.356;5.310;2022-11-20T14:55:54;46.15;;;21.27;;
75932;SDS011;64803;52.356;5.310;2022-11-20T14:58:23;55.38;;;23.23;;
75932;SDS011;64803;52.356;5.310;2022-11-20T15:00:57;46.72;;;20.50;;
75932;SDS011;64803;52.356;5.310;2022-11-20T15:03:33;52.92;;;21.48;;
75932;SDS011;64803;52.356;5.310;2022-11-20T15:06:00;47.45;;;20.95;;
75932;SDS011;64803;52.356;5.310;2022-11-20T15:08:26;54.08;;;22.70;;
75932;SDS011;64803;52.356;5.310;2022-11-20T15:10:53;33.40;;;15.13;;
75932;SDS011;64803;52.356;5.310;2022-11-20T15:13:24;61.25;;;22.92;;
75932;SDS011;64803;52.356;5.310;2022-11-20T15:16:04;47.58;;;19.70;;
75932;SDS011;64803;52.356;5.310;2022-11-20T15:18:43;62.78;;;24.10;;
75932;SDS011;64803;52.356;5.310;2022-11-20T15:21:10;54.33;;;21.90;;
75932;SDS011;64803;52.356;5.310;2022-11-20T15:23:38;43.90;;;19.25;;
75932;SDS011;64803;52.356;5.310;2022-11-20T15:26:05;59.50;;;24.77;;
75932;SDS011;64803;52.356;5.310;2022-11-20T15:28:33;52.28;;;22.20;;
75932;SDS011;64803;52.356;5.310;2022-11-20T15:31:01;52.67;;;21.40;;
75932;SDS011;64803;52.356;5.310;2022-11-20T15:33:28;55.88;;;23.00;;
75932;SDS011;64803;52.356;5.310;2022-11-20T15:35:55;52.05;;;19.85;;
75932;SDS011;64803;52.356;5.310;2022-11-20T15:38:21;54.80;;;20.33;;
75932;SDS011;64803;52.356;5.310;2022-11-20T15:40:47;60.97;;;25.63;;
75932;SDS011;64803;52.356;5.310;2022-11-20T15:43:13;54.53;;;21.98;;
75932;SDS011;64803;52.356;5.310;2022-11-20T15:45:41;60.60;;;22.65;;
75932;SDS011;64803;52.356;5.310;2022-11-20T15:48:11;58.20;;;22.13;;
75932;SDS011;64803;52.356;5.310;2022-11-20T15:50:46;47.70;;;19.52;;
75932;SDS011;64803;52.356;5.310;2022-11-20T15:53:18;63.20;;;23.60;;
75932;SDS011;64803;52.356;5.310;2022-11-20T15:55:44;53.35;;;22.55;;
75932;SDS011;64803;52.356;5.310;2022-11-20T15:58:10;58.53;;;22.83;;
75932;SDS011;64803;52.356;5.310;2022-11-20T16:00:36;51.60;;;19.77;;
75932;SDS011;64803;52.356;5.310;2022-11-20T16:03:02;61.42;;;22.30;;
75932;SDS011;64803;52.356;5.310;2022-11-20T16:05:28;53.85;;;22.30;;
75932;SDS011;64803;52.356;5.310;2022-11-20T16:07:55;58.58;;;22.98;;
75932;SDS011;64803;52.356;5.310;2022-11-20T16:10:21;69.10;;;24.65;;
75932;SDS011;64803;52.356;5.310;2022-11-20T16:12:47;58.60;;;22.55;;
75932;SDS011;64803;52.356;5.310;2022-11-20T16:15:32;58.20;;;21.55;;
75932;SDS011;64803;52.356;5.310;2022-11-20T16:18:12;54.90;;;20.88;;
75932;SDS011;64803;52.356;5.310;2022-11-20T16:20:40;66.38;;;22.13;;
75932;SDS011;64803;52.356;5.310;2022-11-20T16:23:06;62.22;;;24.08;;
75932;SDS011;64803;52.356;5.310;2022-11-20T16:25:32;63.83;;;22.23;;
75932;SDS011;64803;52.356;5.310;2022-11-20T16:27:59;66.53;;;24.63;;
75932;SDS011;64803;52.356;5.310;2022-11-20T16:30:25;49.75;;;20.95;;
75932;SDS011;64803;52.356;5.310;2022-11-20T16:32:51;76.68;;;26.77;;
75932;SDS011;64803;52.356;5.310;2022-11-20T16:35:16;70.07;;;25.17;;
75932;SDS011;64803;52.356;5.310;2022-11-20T16:37:42;70.68;;;23.55;;
75932;SDS011;64803;52.356;5.310;2022-11-20T16:40:09;83.90;;;26.77;;
75932;SDS011;64803;52.356;5.310;2022-11-20T16:42:36;81.03;;;25.98;;
75932;SDS011;64803;52.356;5.310;2022-11-20T16:45:03;77.22;;;24.10;;
75932;SDS011;64803;52.356;5.310;2022-11-20T16:47:33;80.45;;;26.60;;
75932;SDS011;64803;52.356;5.310;2022-11-20T16:50:00;72.90;;;23.27;;
75932;SDS011;64803;52.356;5.310;2022-11-20T16:52:27;70.18;;;25.15;;
75932;SDS011;64803;52.356;5.310;2022-11-20T16:54:55;68.88;;;22.40;;
75932;SDS011;64803;52.356;5.310;2022-11-20T16:57:21;63.92;;;23.70;;
75932;SDS011;64803;52.356;5.310;2022-11-20T16:59:47;66.03;;;23.40;;
75932;SDS011;64803;52.356;5.310;2022-11-20T17:02:13;85.05;;;24.70;;
75932;SDS011;64803;52.356;5.310;2022-11-20T17:04:39;68.75;;;22.55;;
75932;SDS011;64803;52.356;5.310;2022-11-20T17:07:06;67.57;;;21.45;;
75932;SDS011;64803;52.356;5.310;2022-11-20T17:09:33;59.33;;;22.13;;
75932;SDS011;64803;52.356;5.310;2022-11-20T17:11:59;70.97;;;22.55;;
75932;SDS011;64803;52.356;5.310;2022-11-20T17:14:25;75.85;;;28.63;;
75932;SDS011;64803;52.356;5.310;2022-11-20T17:16:51;71.95;;;24.20;;
75932;SDS011;64803;52.356;5.310;2022-11-20T17:19:17;77.22;;;25.50;;
75932;SDS011;64803;52.356;5.310;2022-11-20T17:21:43;78.50;;;29.05;;
75932;SDS011;64803;52.356;5.310;2022-11-20T17:24:09;72.38;;;26.98;;
75932;SDS011;64803;52.356;5.310;2022-11-20T17:26:38;71.13;;;24.58;;
75932;SDS011;64803;52.356;5.310;2022-11-20T17:29:15;63.13;;;25.65;;
75932;SDS011;64803;52.356;5.310;2022-11-20T17:31:43;70.78;;;27.42;;
75932;SDS011;64803;52.356;5.310;2022-11-20T17:34:10;45.53;;;18.75;;
75932;SDS011;64803;52.356;5.310;2022-11-20T17:36:37;34.75;;;14.55;;